Theodore, Alabama
Current Conditions -  °F | °C
As of 5:53 PM on Friday 28 Nov 2014 (Local Time) from KBFM Reporting Station
Clear Clear  
Wind Chill:   Ceiling: Unl
Heat Index:   Visibility: 9mi
Dew Point:   Wind: 0mph
Humidity: 76%   Direction: NA
Pressure: 30.32"   Gusts: NA
Location:  30.55°N, 88.18°W
Report Text: KBFM 282353Z 00000KT 9SM CLR 07/03 A3032 RMK AO2 SLP266 T00670028 10144 20067 55002
Loading
Personal Weather Stations






























Interactive Weather Map New forecast layout! Learn more

10-Day Weather Forecast

Advertisements
Track Severe Weather on mobile